Time;durP1;ratioP1;P1;durP2;ratioP2;P2;SDS_P1;SDS_P2;PMS_P1;PMS_P2;Temp;Humidity;BMP_temperature;BMP_pressure;BME280_temperature;BME280_humidity;BME280_pressure;Samples;Min_cycle;Max_cycle;Signal;HPM_P1;HPM_P2
2021/06/21 00:01:32;;;;;;;14.50;12.70;;;26.50;82.80;;;;;;5053812;28;20459;-51
2021/06/21 00:03:59;;;;;;;16.17;12.47;;;26.50;83.50;;;;;;5053951;28;20438;-50
2021/06/21 00:06:25;;;;;;;14.17;12.57;;;26.40;84.50;;;;;;5053793;28;20438;-51
2021/06/21 00:08:52;;;;;;;14.90;13.70;;;26.30;85.50;;;;;;5053425;28;20576;-50
2021/06/21 00:11:19;;;;;;;19.30;15.13;;;26.30;86.80;;;;;;5054230;28;20471;-50
2021/06/21 00:13:47;;;;;;;18.90;13.83;;;26.30;88.10;;;;;;5053940;28;20431;-49
2021/06/21 00:16:14;;;;;;;15.27;13.50;;;26.20;88.30;;;;;;5053616;28;20511;-49
2021/06/21 00:18:40;;;;;;;23.50;14.33;;;26.10;89.30;;;;;;5053261;28;20809;-48
2021/06/21 00:21:07;;;;;;;14.90;13.37;;;26.20;90.30;;;;;;5053592;28;20549;-50
2021/06/21 00:23:34;;;;;;;15.23;13.73;;;26.00;90.40;;;;;;5053803;28;20441;-49
2021/06/21 00:26:00;;;;;;;17.67;15.40;;;25.90;91.10;;;;;;5053559;28;20445;-48
2021/06/21 00:28:28;;;;;;;16.50;14.93;;;26.00;91.70;;;;;;5035128;28;20591;-49
2021/06/21 00:30:56;;;;;;;16.40;14.00;;;25.80;92.10;;;;;;5053330;28;20493;-48
2021/06/21 00:33:22;;;;;;;17.30;15.60;;;25.80;92.40;;;;;;5053924;28;20446;-48
2021/06/21 00:35:49;;;;;;;17.17;15.03;;;25.80;92.70;;;;;;5053226;28;20513;-51
2021/06/21 00:38:16;;;;;;;19.50;14.20;;;25.70;93.30;;;;;;5052885;28;20430;-49
2021/06/21 00:40:42;;;;;;;16.10;14.40;;;25.60;94.00;;;;;;5052984;28;20461;-48
2021/06/21 00:43:09;;;;;;;14.90;13.47;;;25.60;94.30;;;;;;5053261;28;20446;-48
2021/06/21 00:45:36;;;;;;;14.67;13.30;;;25.50;94.60;;;;;;5053093;28;20441;-49
2021/06/21 00:48:04;;;;;;;15.77;14.00;;;25.40;94.90;;;;;;5052959;28;20470;-48
2021/06/21 00:50:31;;;;;;;16.70;12.83;;;25.30;95.30;;;;;;5052959;28;20454;-48
2021/06/21 00:53:00;;;;;;;14.60;13.10;;;25.30;95.30;;;;;;5053744;28;20442;-49
2021/06/21 00:55:30;;;;;;;14.93;11.97;;;25.30;95.30;;;;;;5054000;28;20449;-49
2021/06/21 00:57:57;;;;;;;15.23;12.03;;;25.20;95.40;;;;;;5053014;28;20946;-49
2021/06/21 01:00:26;;;;;;;12.87;11.53;;;25.20;95.60;;;;;;5052646;28;20447;-51
2021/06/21 01:02:53;;;;;;;13.73;12.33;;;25.20;95.70;;;;;;5052724;28;20454;-49
2021/06/21 01:05:23;;;;;;;12.83;11.73;;;25.20;95.80;;;;;;5052892;28;20422;-49
2021/06/21 01:07:50;;;;;;;13.00;11.63;;;25.20;95.80;;;;;;5052861;28;20483;-49
2021/06/21 01:10:20;;;;;;;15.80;13.13;;;25.10;95.80;;;;;;5052529;28;20816;-49
2021/06/21 01:13:19;;;;;;;15.10;12.53;;;25.20;96.00;;;;;;5052732;28;20879;-49
2021/06/21 01:20:03;;;;;;;12.90;11.70;;;25.10;96.30;;;;;;5052320;28;20605;-49
2021/06/21 01:23:02;;;;;;;12.47;11.40;;;24.90;96.20;;;;;;5052616;28;20438;-49
2021/06/21 01:25:34;;;;;;;14.33;11.77;;;25.00;96.40;;;;;;5052386;28;20442;-49
2021/06/21 01:28:08;;;;;;;14.20;12.33;;;25.00;96.40;;;;;;5051627;28;20481;-49
2021/06/21 01:30:51;;;;;;;13.53;12.20;;;25.00;96.50;;;;;;5052217;28;20530;-51
2021/06/21 01:33:20;;;;;;;12.70;11.50;;;24.90;96.80;;;;;;5052131;28;20440;-51
2021/06/21 01:35:52;;;;;;;13.80;12.40;;;24.90;96.90;;;;;;5051981;28;20957;-49
2021/06/21 01:38:22;;;;;;;12.43;11.20;;;24.80;97.20;;;;;;5051547;28;20428;-49
2021/06/21 01:40:53;;;;;;;12.27;11.00;;;24.80;97.10;;;;;;5051883;28;20996;-48
2021/06/21 01:43:25;;;;;;;12.63;11.03;;;24.90;97.30;;;;;;5052189;28;20442;-48
2021/06/21 01:45:51;;;;;;;14.57;12.23;;;24.70;97.20;;;;;;5052102;28;20438;-49
2021/06/21 01:48:24;;;;;;;13.50;11.50;;;24.70;97.20;;;;;;5051665;28;20474;-48
2021/06/21 01:50:54;;;;;;;12.57;11.37;;;24.80;97.10;;;;;;5051942;28;20457;-49
2021/06/21 01:53:25;;;;;;;13.43;12.03;;;24.70;97.20;;;;;;5052077;28;20824;-48
2021/06/21 01:55:58;;;;;;;12.40;11.30;;;24.70;97.40;;;;;;5052160;28;20434;-47
2021/06/21 01:58:26;;;;;;;13.30;11.50;;;24.60;97.50;;;;;;5051610;28;20434;-48
2021/06/21 02:00:53;;;;;;;15.77;12.10;;;24.60;97.60;;;;;;5051756;28;20457;-50
2021/06/21 02:03:22;;;;;;;13.63;12.20;;;24.60;97.70;;;;;;5055252;28;20786;-48
2021/06/21 02:05:51;;;;;;;14.00;12.80;;;24.60;97.80;;;;;;5052290;28;20503;-48
2021/06/21 02:08:19;;;;;;;14.73;13.20;;;24.60;97.80;;;;;;5033543;28;20491;-49
2021/06/21 02:10:50;;;;;;;15.93;13.33;;;24.60;97.90;;;;;;5033758;28;20490;-48
2021/06/21 02:13:18;;;;;;;14.37;13.20;;;24.30;98.00;;;;;;5033908;28;20454;-48
2021/06/21 02:15:45;;;;;;;14.60;13.30;;;24.50;98.50;;;;;;5051804;28;20422;-48
2021/06/21 02:18:12;;;;;;;14.30;12.47;;;24.50;98.50;;;;;;5051545;28;20433;-48
2021/06/21 02:20:40;;;;;;;15.80;12.60;;;24.50;98.70;;;;;;5051526;28;21036;-48
2021/06/21 02:23:08;;;;;;;14.47;12.97;;;24.50;98.80;;;;;;5051653;28;20453;-48
2021/06/21 02:25:35;;;;;;;14.27;12.90;;;24.60;98.80;;;;;;5051344;28;20525;-48
2021/06/21 02:28:02;;;;;;;15.13;13.70;;;24.60;98.90;;;;;;5050007;28;20482;-51
2021/06/21 02:30:29;;;;;;;15.43;14.00;;;24.60;99.10;;;;;;5051431;28;20468;-48
2021/06/21 02:32:56;;;;;;;16.47;13.67;;;24.60;99.20;;;;;;5051493;28;20443;-50
2021/06/21 02:35:22;;;;;;;15.47;14.07;;;24.60;99.40;;;;;;5051515;28;20445;-49
2021/06/21 02:37:50;;;;;;;15.30;13.30;;;24.60;99.50;;;;;;5051544;28;20560;-48
2021/06/21 02:40:17;;;;;;;18.40;14.50;;;24.60;99.80;;;;;;5052201;28;20980;-49
2021/06/21 02:42:44;;;;;;;16.70;15.00;;;24.60;99.90;;;;;;5055376;28;20452;-51
2021/06/21 02:45:12;;;;;;;18.83;13.73;;;24.60;99.90;;;;;;5055581;28;20442;-48
2021/06/21 02:47:40;;;;;;;16.67;15.17;;;24.60;99.90;;;;;;5037834;28;20449;-47
2021/06/21 02:50:08;;;;;;;21.00;15.40;;;25.00;99.90;;;;;;5055321;28;20468;-47
2021/06/21 02:52:44;;;;;;;17.13;14.90;;;24.70;99.90;;;;;;5055466;28;20965;-48
2021/06/21 02:55:16;;;;;;;20.77;16.50;;;24.60;99.90;;;;;;5055305;28;20960;-49
2021/06/21 02:57:57;;;;;;;17.90;16.20;;;24.60;99.90;;;;;;5055375;28;20434;-49
2021/06/21 03:00:24;;;;;;;17.97;16.30;;;24.60;99.90;;;;;;5055205;28;20459;-48
2021/06/21 03:02:55;;;;;;;17.73;15.87;;;24.50;99.90;;;;;;5055207;28;20437;-48
2021/06/21 03:05:22;;;;;;;18.97;17.20;;;24.60;99.90;;;;;;5055235;28;20435;-49
2021/06/21 03:07:51;;;;;;;19.20;17.40;;;24.60;99.90;;;;;;5054956;28;20480;-48
2021/06/21 03:10:21;;;;;;;21.00;19.00;;;24.60;99.90;;;;;;5057278;28;20576;-51
2021/06/21 03:12:49;;;;;;;20.90;18.73;;;24.70;99.90;;;;;;5055515;28;20438;-48
2021/06/21 03:15:19;;;;;;;19.17;17.20;;;24.60;99.90;;;;;;5054873;28;20783;-48
2021/06/21 03:17:47;;;;;;;19.50;17.50;;;24.70;99.90;;;;;;5054867;28;20446;-48
2021/06/21 03:20:15;;;;;;;20.67;18.50;;;24.60;99.90;;;;;;5054940;28;20965;-49
2021/06/21 03:22:44;;;;;;;19.77;17.83;;;24.60;99.90;;;;;;5054741;28;20456;-48
2021/06/21 03:25:12;;;;;;;21.87;20.07;;;24.70;99.90;;;;;;5054780;28;20866;-47
2021/06/21 03:27:40;;;;;;;21.60;19.63;;;24.60;99.90;;;;;;5054775;28;20446;-47
2021/06/21 03:30:12;;;;;;;21.73;18.60;;;24.70;99.90;;;;;;5054438;28;20963;-48
2021/06/21 03:32:41;;;;;;;19.50;17.70;;;24.60;99.90;;;;;;5054525;28;20438;-48
2021/06/21 03:35:10;;;;;;;20.47;18.43;;;24.50;99.90;;;;;;5053715;28;20481;-47
2021/06/21 03:37:37;;;;;;;19.63;17.80;;;24.60;99.90;;;;;;5054713;28;20457;-48
2021/06/21 03:40:05;;;;;;;18.97;17.23;;;24.50;99.90;;;;;;5054337;28;20451;-47
2021/06/21 03:42:32;;;;;;;16.17;14.67;;;24.60;99.90;;;;;;5054791;28;20442;-48
2021/06/21 03:45:01;;;;;;;16.70;15.20;;;24.60;99.90;;;;;;5054417;28;20415;-48
2021/06/21 03:47:27;;;;;;;14.30;12.90;;;24.50;99.90;;;;;;5054163;28;20445;-49
2021/06/21 03:49:54;;;;;;;14.93;13.73;;;24.50;99.90;;;;;;5053844;28;20492;-48
2021/06/21 03:52:21;;;;;;;15.83;14.10;;;24.50;99.90;;;;;;5053825;28;20434;-49
2021/06/21 03:54:47;;;;;;;14.87;13.40;;;24.50;99.90;;;;;;5053977;28;20921;-49
2021/06/21 03:57:15;;;;;;;17.87;16.17;;;24.50;99.90;;;;;;5054008;28;20440;-49
2021/06/21 03:59:41;;;;;;;17.40;15.70;;;24.40;99.90;;;;;;5053575;28;20450;-51
2021/06/21 04:02:09;;;;;;;18.80;17.00;;;24.50;99.90;;;;;;5053830;28;20465;-49
2021/06/21 04:04:36;;;;;;;18.83;16.23;;;24.50;99.90;;;;;;5054078;28;20463;-49
2021/06/21 04:07:04;;;;;;;18.20;16.57;;;24.40;99.90;;;;;;5053749;28;20436;-47
2021/06/21 04:09:31;;;;;;;18.07;16.57;;;24.30;99.90;;;;;;5053048;28;20490;-47
2021/06/21 04:11:59;;;;;;;17.47;16.07;;;24.30;99.90;;;;;;5053761;28;20759;-48
2021/06/21 04:14:25;;;;;;;19.07;17.20;;;24.40;99.90;;;;;;5035934;28;20450;-48
2021/06/21 04:16:52;;;;;;;19.40;17.40;;;24.40;99.90;;;;;;5054180;28;20805;-49
2021/06/21 04:19:20;;;;;;;17.50;15.80;;;24.40;99.90;;;;;;5055639;28;20441;-48
2021/06/21 04:21:46;;;;;;;17.40;15.63;;;24.10;99.90;;;;;;5054693;28;20438;-47
2021/06/21 04:24:13;;;;;;;18.83;16.63;;;24.70;99.90;;;;;;5054286;28;20452;-48
2021/06/21 04:26:41;;;;;;;17.13;15.30;;;24.40;99.90;;;;;;5053742;28;20829;-49
2021/06/21 04:29:07;;;;;;;15.40;14.00;;;24.40;99.90;;;;;;5052980;28;20484;-49
2021/06/21 04:31:34;;;;;;;16.00;14.57;;;24.30;99.90;;;;;;5053562;28;20984;-51
2021/06/21 04:34:00;;;;;;;15.20;13.90;;;24.20;99.90;;;;;;5053705;28;20430;-49
2021/06/21 04:36:28;;;;;;;15.80;14.30;;;24.30;99.90;;;;;;5053726;28;20446;-49
2021/06/21 04:38:55;;;;;;;16.10;14.57;;;24.20;99.90;;;;;;5053341;28;20426;-49
2021/06/21 04:41:22;;;;;;;16.53;14.83;;;24.10;99.90;;;;;;5053259;28;20457;-49
2021/06/21 04:43:48;;;;;;;15.20;13.90;;;24.10;99.90;;;;;;5053172;28;20441;-50
2021/06/21 04:46:15;;;;;;;16.07;14.40;;;24.10;99.90;;;;;;5053192;28;20430;-49
2021/06/21 04:48:43;;;;;;;15.87;14.23;;;24.00;99.90;;;;;;5052791;28;20477;-48
2021/06/21 04:51:09;;;;;;;16.33;14.60;;;23.90;99.90;;;;;;5052860;28;20468;-48
2021/06/21 04:53:37;;;;;;;14.47;13.10;;;24.00;99.90;;;;;;5053032;28;20449;-48
2021/06/21 04:56:05;;;;;;;13.43;12.23;;;23.80;99.90;;;;;;5052857;28;20980;-46
2021/06/21 04:58:35;;;;;;;14.23;12.87;;;23.80;99.90;;;;;;5053054;28;20467;-47
2021/06/21 05:01:02;;;;;;;15.33;13.87;;;23.80;99.90;;;;;;5052777;28;20822;-49
2021/06/21 05:03:29;;;;;;;14.57;13.23;;;23.80;99.90;;;;;;5052028;28;20857;-49
2021/06/21 05:05:56;;;;;;;16.37;13.30;;;23.80;99.90;;;;;;5052437;28;20440;-48
2021/06/21 05:08:23;;;;;;;14.57;12.90;;;23.70;99.90;;;;;;5052294;28;20452;-50
2021/06/21 05:10:51;;;;;;;12.43;11.33;;;23.70;99.90;;;;;;5052162;28;20471;-48
2021/06/21 05:13:18;;;;;;;13.70;12.03;;;23.80;99.90;;;;;;5052472;28;20433;-47
2021/06/21 05:15:44;;;;;;;15.80;12.37;;;23.60;99.90;;;;;;5052510;28;20805;-49
2021/06/21 05:18:11;;;;;;;13.67;12.37;;;23.70;99.90;;;;;;5034127;28;20448;-51
2021/06/21 05:20:37;;;;;;;15.87;12.10;;;23.80;99.90;;;;;;5052183;28;20491;-49
2021/06/21 05:23:04;;;;;;;14.37;13.10;;;23.70;99.90;;;;;;5051908;28;20436;-50
2021/06/21 05:25:33;;;;;;;13.90;12.50;;;23.70;99.90;;;;;;5052399;28;20444;-49
2021/06/21 05:28:01;;;;;;;14.87;13.37;;;23.80;99.90;;;;;;5055234;28;20507;-51
2021/06/21 05:30:27;;;;;;;14.23;12.23;;;23.80;99.90;;;;;;5051788;28;20490;-50
2021/06/21 05:32:54;;;;;;;14.03;12.40;;;23.80;99.90;;;;;;5051993;28;20448;-49
2021/06/21 05:35:21;;;;;;;15.47;13.93;;;23.50;99.90;;;;;;5051981;28;20439;-48
2021/06/21 05:38:31;;;;;;;15.20;13.80;;;22.80;99.90;;;;;;5051762;28;20436;-48
2021/06/21 05:40:58;;;;;;;15.00;13.70;;;23.90;99.90;;;;;;5051448;28;20460;-49
2021/06/21 05:43:26;;;;;;;16.70;13.77;;;24.10;99.90;;;;;;5051255;28;20432;-49
2021/06/21 05:45:53;;;;;;;16.37;13.20;;;24.20;99.90;;;;;;5033087;28;20466;-46
2021/06/21 05:48:20;;;;;;;14.20;12.90;;;24.30;99.90;;;;;;5050740;28;20988;-49
2021/06/21 05:50:46;;;;;;;16.00;13.93;;;24.40;99.90;;;;;;5051342;28;20453;-48
2021/06/21 05:53:13;;;;;;;14.23;12.73;;;25.10;99.90;;;;;;5050910;28;20934;-48
2021/06/21 05:55:40;;;;;;;16.50;15.07;;;24.70;99.90;;;;;;5051124;28;20438;-52
2021/06/21 05:58:06;;;;;;;14.80;13.43;;;24.90;99.90;;;;;;5050976;28;20537;-49
2021/06/21 06:00:34;;;;;;;22.73;15.53;;;25.00;99.90;;;;;;5033282;28;21012;-48
2021/06/21 06:03:01;;;;;;;14.97;13.60;;;25.10;99.90;;;;;;5051368;28;20436;-48
2021/06/21 06:05:29;;;;;;;15.73;14.23;;;25.10;99.90;;;;;;5050802;28;20437;-48
2021/06/21 06:07:55;;;;;;;15.03;13.80;;;25.20;99.90;;;;;;5051181;28;20445;-48
2021/06/21 06:10:23;;;;;;;16.47;14.77;;;25.60;99.90;;;;;;5070763;22;20501;-55
2021/06/21 06:12:50;;;;;;;16.43;14.73;;;25.80;99.90;;;;;;5068878;28;20438;-53
2021/06/21 06:15:17;;;;;;;16.53;15.03;;;25.80;99.90;;;;;;5070572;28;20441;-54
2021/06/21 06:17:45;;;;;;;17.33;15.30;;;26.00;99.90;;;;;;5071328;28;20449;-54
2021/06/21 06:20:12;;;;;;;16.17;14.87;;;26.00;99.90;;;;;;5070699;28;20445;-54
2021/06/21 06:22:40;;;;;;;17.37;15.77;;;26.10;99.70;;;;;;5070744;28;20501;-54
2021/06/21 06:25:07;;;;;;;16.30;14.80;;;26.30;99.40;;;;;;5070618;28;20445;-54
2021/06/21 06:27:34;;;;;;;18.07;16.23;;;26.30;99.20;;;;;;5070428;28;20430;-54
2021/06/21 06:30:01;;;;;;;16.90;15.30;;;26.40;99.00;;;;;;5069982;28;20858;-54
2021/06/21 06:32:27;;;;;;;19.00;17.33;;;26.50;98.70;;;;;;5069693;28;20507;-54
2021/06/21 06:34:55;;;;;;;24.37;16.17;;;26.60;98.40;;;;;;5070381;28;20429;-53
2021/06/21 06:37:22;;;;;;;18.13;15.30;;;26.70;98.30;;;;;;5051962;28;21000;-54
2021/06/21 06:39:49;;;;;;;20.20;15.00;;;26.90;98.20;;;;;;5069959;28;20433;-54
2021/06/21 06:42:16;;;;;;;17.47;16.07;;;26.80;98.00;;;;;;5051570;28;20544;-55
2021/06/21 06:44:42;;;;;;;17.43;15.80;;;27.00;97.80;;;;;;5070068;28;20433;-55
2021/06/21 06:47:09;;;;;;;18.13;16.37;;;27.20;97.50;;;;;;5069754;28;20437;-55
2021/06/21 06:49:36;;;;;;;19.20;16.47;;;27.40;97.10;;;;;;5069528;28;20564;-54
2021/06/21 06:52:04;;;;;;;16.67;14.97;;;27.60;96.80;;;;;;5069890;28;20434;-56
2021/06/21 06:54:44;;;;;;;15.93;14.40;;;28.20;96.70;;;;;;5052224;28;20511;-55
2021/06/21 06:57:11;;;;;;;15.63;13.10;;;27.90;96.00;;;;;;5070144;28;20595;-55
2021/06/21 06:59:39;;;;;;;18.30;14.40;;;28.00;95.70;;;;;;5069918;28;20434;-54
2021/06/21 07:02:07;;;;;;;16.60;14.30;;;28.00;95.40;;;;;;5070163;28;20468;-54
2021/06/21 07:04:35;;;;;;;16.13;14.43;;;28.00;95.20;;;;;;5052464;28;20459;-54
2021/06/21 07:07:04;;;;;;;15.70;14.40;;;28.00;94.90;;;;;;5070573;28;20437;-54
2021/06/21 07:09:31;;;;;;;16.83;13.13;;;28.00;94.70;;;;;;5070340;28;20475;-54
2021/06/21 07:11:58;;;;;;;15.57;14.17;;;28.00;94.50;;;;;;5070003;28;20457;-54
2021/06/21 07:14:26;;;;;;;16.57;15.00;;;28.00;94.50;;;;;;5070186;28;20434;-54
2021/06/21 07:16:53;;;;;;;14.50;13.23;;;28.00;94.30;;;;;;5070118;28;20434;-54
2021/06/21 07:19:20;;;;;;;18.53;13.13;;;28.10;94.30;;;;;;5068963;28;20487;-54
2021/06/21 07:21:47;;;;;;;15.93;14.47;;;28.20;94.10;;;;;;5069258;28;20491;-55
2021/06/21 07:24:16;;;;;;;20.50;15.17;;;28.30;93.90;;;;;;5069561;28;20768;-54
2021/06/21 07:26:44;;;;;;;18.67;16.70;;;28.40;93.70;;;;;;5071289;28;20428;-54
2021/06/21 07:29:11;;;;;;;14.80;13.33;;;28.40;93.50;;;;;;5072722;28;20507;-54
2021/06/21 07:31:39;;;;;;;15.30;14.00;;;28.40;93.30;;;;;;5072963;28;20453;-53
2021/06/21 07:34:06;;;;;;;17.63;15.80;;;28.40;93.20;;;;;;5072973;28;20759;-54
2021/06/21 07:36:33;;;;;;;15.53;14.00;;;28.50;93.00;;;;;;5073275;28;20872;-54
2021/06/21 07:39:00;;;;;;;17.00;15.30;;;28.60;92.80;;;;;;5072994;28;20444;-53
2021/06/21 07:41:28;;;;;;;16.57;14.87;;;28.70;92.40;;;;;;5073164;28;20776;-53
2021/06/21 07:43:54;;;;;;;16.90;15.10;;;28.60;92.40;;;;;;5055015;28;20799;-54
2021/06/21 07:46:21;;;;;;;15.97;14.37;;;28.80;92.40;;;;;;5073671;28;20448;-55
2021/06/21 07:48:48;;;;;;;17.43;14.03;;;28.80;92.30;;;;;;5073031;28;20495;-54
2021/06/21 07:51:21;;;;;;;18.10;14.20;;;28.90;92.10;;;;;;5072812;28;20981;-54
2021/06/21 07:53:51;;;;;;;14.70;13.30;;;28.90;91.80;;;;;;5072401;28;20444;-54
2021/06/21 07:56:18;;;;;;;15.67;14.33;;;28.90;91.60;;;;;;5072487;28;20442;-54
2021/06/21 07:58:46;;;;;;;21.87;14.40;;;28.60;91.40;;;;;;5072459;28;20438;-54
2021/06/21 08:01:13;;;;;;;14.83;13.23;;;28.80;91.50;;;;;;5072313;28;20458;-56
2021/06/21 08:03:39;;;;;;;17.50;13.80;;;28.80;91.40;;;;;;5072162;28;20485;-55
2021/06/21 08:06:10;;;;;;;15.37;13.70;;;28.80;91.30;;;;;;5072305;28;20686;-56
2021/06/21 08:08:38;;;;;;;17.50;12.10;;;28.80;91.20;;;;;;5071870;28;20434;-55
2021/06/21 08:11:05;;;;;;;15.23;13.37;;;28.80;91.60;;;;;;5072271;28;20926;-55
2021/06/21 08:13:31;;;;;;;20.70;12.50;;;28.80;91.20;;;;;;5072115;28;20425;-55
2021/06/21 08:16:00;;;;;;;12.77;11.00;;;28.80;91.10;;;;;;5071990;28;20448;-56
2021/06/21 08:18:26;;;;;;;10.53;9.30;;;28.80;91.00;;;;;;5072428;28;20436;-55
2021/06/21 08:20:53;;;;;;;10.40;8.43;;;28.80;90.50;;;;;;5053780;28;20478;-57
2021/06/21 08:23:20;;;;;;;10.60;8.70;;;28.80;90.20;;;;;;5053570;28;20464;-55
2021/06/21 08:25:47;;;;;;;9.57;8.50;;;28.90;89.90;;;;;;5072386;28;20449;-55
2021/06/21 08:28:14;;;;;;;13.00;8.50;;;28.80;89.80;;;;;;5071403;28;20434;-55
2021/06/21 08:30:43;;;;;;;14.07;7.67;;;28.80;89.90;;;;;;5071714;28;20488;-55
2021/06/21 08:33:11;;;;;;;11.73;8.27;;;28.80;89.50;;;;;;5072167;28;20958;-55
2021/06/21 08:35:38;;;;;;;11.90;7.30;;;28.90;89.30;;;;;;5071751;28;20444;-55
2021/06/21 08:38:05;;;;;;;9.97;7.20;;;28.90;89.00;;;;;;5070564;28;20534;-54
2021/06/21 08:40:33;;;;;;;7.60;6.50;;;28.90;88.80;;;;;;5071832;28;20454;-54
2021/06/21 08:43:00;;;;;;;10.70;8.03;;;28.90;88.30;;;;;;5071923;28;20479;-55
2021/06/21 08:45:29;;;;;;;9.20;7.00;;;28.90;88.00;;;;;;5071682;28;20523;-55
2021/06/21 08:47:56;;;;;;;8.57;6.97;;;29.00;88.10;;;;;;5071850;28;20514;-55
2021/06/21 08:50:24;;;;;;;18.03;7.27;;;29.00;87.00;;;;;;5070924;28;20852;-55
2021/06/21 08:52:52;;;;;;;11.23;5.40;;;29.00;86.30;;;;;;5071108;28;20430;-55
2021/06/21 08:55:19;;;;;;;11.30;7.17;;;29.10;86.00;;;;;;5069331;28;20870;-56
2021/06/21 08:57:48;;;;;;;11.83;5.60;;;29.10;85.40;;;;;;5057787;28;20445;-56
2021/06/21 09:00:18;;;;;;;11.97;6.00;;;29.20;83.90;;;;;;5056822;28;20454;-56
2021/06/21 09:02:47;;;;;;;6.10;4.70;;;29.20;83.80;;;;;;5052118;28;20439;-56
2021/06/21 09:05:14;;;;;;;10.93;4.63;;;29.20;83.60;;;;;;5071487;28;20973;-56
2021/06/21 09:07:42;;;;;;;9.40;4.73;;;29.20;82.30;;;;;;5071414;28;20430;-53
2021/06/21 09:10:23;;;;;;;6.40;3.80;;;29.20;81.70;;;;;;5070558;28;20489;-53
2021/06/21 09:13:05;;;;;;;11.63;4.27;;;29.20;80.50;;;;;;5070872;28;20430;-55
2021/06/21 09:15:33;;;;;;;15.40;7.47;;;29.20;80.30;;;;;;5065048;28;20435;-55
2021/06/21 09:18:01;;;;;;;6.43;3.80;;;29.20;80.00;;;;;;5050993;28;20453;-54
2021/06/21 09:20:28;;;;;;;12.60;4.00;;;29.30;79.90;;;;;;5051066;28;20992;-55
2021/06/21 09:23:01;;;;;;;4.33;3.03;;;29.30;79.90;;;;;;5050528;28;20837;-55
2021/06/21 09:25:28;;;;;;;3.77;2.67;;;29.30;79.00;;;;;;5050942;28;20433;-55
2021/06/21 09:27:56;;;;;;;5.83;2.93;;;29.30;79.00;;;;;;5050828;28;20447;-54
2021/06/21 09:30:23;;;;;;;4.63;2.97;;;29.40;78.80;;;;;;5050076;28;20873;-56
2021/06/21 09:32:52;;;;;;;8.40;2.87;;;29.30;78.10;;;;;;5050898;28;20430;-56
2021/06/21 09:35:38;;;;;;;19.67;3.20;;;29.30;77.70;;;;;;5050967;28;20869;-56
2021/06/21 09:38:12;;;;;;;3.03;2.60;;;29.40;77.10;;;;;;5050709;28;20443;-55
2021/06/21 09:40:40;;;;;;;6.20;2.87;;;29.30;77.20;;;;;;5050541;28;20586;-57
2021/06/21 09:43:26;;;;;;;5.80;2.83;;;29.30;77.20;;;;;;5051526;28;20953;-55
2021/06/21 09:46:07;;;;;;;4.23;2.90;;;29.30;77.20;;;;;;5050956;28;20498;-55
2021/06/21 09:48:36;;;;;;;4.30;2.63;;;29.30;77.30;;;;;;5050750;28;20442;-58
2021/06/21 09:51:18;;;;;;;6.57;3.70;;;29.20;77.40;;;;;;5063290;28;20483;-56
2021/06/21 09:53:55;;;;;;;5.10;3.17;;;29.40;77.90;;;;;;5050589;28;20462;-56
2021/06/21 09:56:43;;;;;;;5.13;3.23;;;29.50;77.90;;;;;;5067633;28;20595;-55
2021/06/21 09:59:21;;;;;;;5.77;3.57;;;29.50;77.40;;;;;;5052535;28;20450;-56
2021/06/21 10:05:36;;;;;;;10.67;3.83;;;29.70;77.60;;;;;;5070185;28;20410;-56
2021/06/21 10:08:03;;;;;;;5.97;3.60;;;29.70;77.20;;;;;;5057147;28;20443;-55
2021/06/21 10:10:33;;;;;;;3.97;3.53;;;29.60;76.70;;;;;;5049817;28;20489;-55
2021/06/21 10:13:00;;;;;;;7.20;4.60;;;29.70;76.70;;;;;;5050246;28;20446;-55
2021/06/21 10:15:27;;;;;;;4.60;3.40;;;29.70;76.50;;;;;;5050658;28;20438;-56
2021/06/21 10:17:53;;;;;;;7.40;3.80;;;29.70;76.20;;;;;;5032400;28;20446;-56
2021/06/21 10:20:20;;;;;;;6.10;4.17;;;30.40;76.40;;;;;;5049795;28;20459;-56
2021/06/21 10:22:47;;;;;;;8.40;4.73;;;29.70;75.80;;;;;;5049952;28;20517;-57
2021/06/21 10:25:14;;;;;;;5.60;3.90;;;29.80;75.30;;;;;;5049967;28;20426;-55
2021/06/21 10:27:46;;;;;;;5.00;3.80;;;29.70;75.20;;;;;;5049896;28;20426;-56
2021/06/21 10:30:16;;;;;;;5.37;3.83;;;29.70;75.70;;;;;;5049816;28;20488;-56
2021/06/21 10:32:43;;;;;;;11.53;4.20;;;29.80;75.60;;;;;;5031824;28;20565;-55
2021/06/21 10:35:12;;;;;;;6.80;3.93;;;29.80;75.90;;;;;;5049782;28;20519;-55
2021/06/21 10:37:40;;;;;;;6.70;4.30;;;29.80;76.10;;;;;;5031712;28;20545;-56
2021/06/21 10:40:09;;;;;;;7.70;4.70;;;29.80;76.30;;;;;;5049486;28;20999;-57
2021/06/21 10:42:42;;;;;;;5.50;4.00;;;29.80;76.90;;;;;;5031722;28;20476;-54
2021/06/21 10:45:18;;;;;;;7.63;5.40;;;29.80;77.40;;;;;;5050066;28;20443;-55
2021/06/21 10:47:45;;;;;;;6.87;4.83;;;29.90;77.50;;;;;;5032394;28;20541;-56
2021/06/21 10:50:24;;;;;;;7.73;4.40;;;29.80;77.10;;;;;;5049180;28;20846;-55
2021/06/21 10:53:00;;;;;;;7.10;4.33;;;30.00;76.90;;;;;;5049864;28;20430;-55
2021/06/21 10:55:40;;;;;;;5.83;4.23;;;30.10;76.50;;;;;;5050440;28;20430;-55
2021/06/21 10:58:10;;;;;;;6.07;4.40;;;30.10;75.90;;;;;;5049483;28;20571;-55
2021/06/21 11:00:39;;;;;;;5.53;4.37;;;30.20;75.50;;;;;;5049322;28;20481;-55
2021/06/21 11:03:37;;;;;;;5.03;3.80;;;30.20;75.10;;;;;;5053302;28;20855;-56
2021/06/21 11:06:05;;;;;;;8.67;6.83;;;30.20;75.10;;;;;;5053783;28;20481;-56
2021/06/21 11:08:44;;;;;;;5.83;4.30;;;30.10;75.20;;;;;;5053555;28;20435;-56
2021/06/21 11:11:38;;;;;;;6.37;4.03;;;30.10;75.20;;;;;;5053062;28;20565;-55
2021/06/21 11:14:11;;;;;;;6.13;4.13;;;30.10;75.40;;;;;;5053415;28;20492;-56
2021/06/21 11:16:40;;;;;;;6.73;3.97;;;30.10;75.70;;;;;;5053324;28;20538;-56
2021/06/21 11:19:31;;;;;;;9.17;4.40;;;30.10;75.80;;;;;;5052965;28;20491;-54
2021/06/21 11:22:00;;;;;;;5.93;3.90;;;30.10;75.20;;;;;;5053069;28;20986;-54
2021/06/21 11:25:03;;;;;;;7.37;4.13;;;30.10;75.40;;;;;;5052977;28;20447;-54
2021/06/21 11:27:43;;;;;;;5.07;3.67;;;30.00;75.30;;;;;;5053118;28;20844;-54
2021/06/21 11:30:31;;;;;;;6.90;3.63;;;30.10;75.00;;;;;;5052436;28;20481;-54
2021/06/21 11:33:02;;;;;;;7.17;4.60;;;30.10;74.80;;;;;;5053116;28;20816;-55
2021/06/21 11:35:53;;;;;;;7.67;5.40;;;30.10;74.90;;;;;;5053870;28;20448;-55
2021/06/21 11:38:22;;;;;;;5.83;3.93;;;30.20;74.50;;;;;;5052782;28;20453;-54
2021/06/21 11:40:49;;;;;;;4.90;3.73;;;30.10;74.30;;;;;;5053811;28;20984;-54
2021/06/21 11:43:18;;;;;;;7.60;4.63;;;29.90;74.40;;;;;;5037456;28;20801;-54
2021/06/21 11:46:07;;;;;;;6.20;3.03;;;30.50;75.10;;;;;;5053043;28;20438;-54
2021/06/21 11:48:37;;;;;;;6.73;4.30;;;30.30;74.40;;;;;;5051157;28;20958;-55
2021/06/21 11:51:12;;;;;;;4.37;3.23;;;30.30;74.30;;;;;;5072806;28;20480;-53
2021/06/21 11:53:42;;;;;;;7.30;4.10;;;30.30;74.20;;;;;;5072758;28;20421;-55
2021/06/21 11:56:09;;;;;;;8.20;4.30;;;30.40;74.10;;;;;;5072427;28;20506;-55
2021/06/21 11:58:36;;;;;;;7.17;4.37;;;30.30;73.60;;;;;;5072580;28;20430;-54
2021/06/21 12:01:18;;;;;;;8.13;4.80;;;30.30;73.20;;;;;;5072740;28;20452;-54
2021/06/21 12:03:45;;;;;;;8.00;4.57;;;30.40;73.10;;;;;;5066484;28;20461;-54
2021/06/21 12:06:13;;;;;;;7.33;4.13;;;30.40;72.80;;;;;;5056965;28;20809;-55
2021/06/21 12:08:40;;;;;;;7.30;3.97;;;30.50;72.40;;;;;;5054972;28;20434;-55
2021/06/21 12:11:14;;;;;;;5.93;3.90;;;30.50;72.30;;;;;;5072642;28;20478;-55
2021/06/21 12:13:42;;;;;;;7.23;3.80;;;30.60;71.60;;;;;;5072223;28;20444;-55
2021/06/21 12:16:10;;;;;;;7.83;4.13;;;30.60;71.30;;;;;;5072397;28;20441;-55
2021/06/21 12:18:38;;;;;;;7.50;3.77;;;30.60;71.20;;;;;;5072002;28;20764;-55
2021/06/21 12:21:05;;;;;;;9.20;3.53;;;30.60;71.10;;;;;;5068310;28;20459;-55
2021/06/21 12:23:32;;;;;;;8.70;3.93;;;30.70;71.10;;;;;;5052258;28;20442;-55
2021/06/21 12:26:00;;;;;;;8.37;3.70;;;30.70;71.30;;;;;;5052199;28;20474;-55
2021/06/21 12:28:29;;;;;;;7.57;4.03;;;30.80;71.20;;;;;;5051583;28;20431;-54
2021/06/21 12:30:59;;;;;;;6.40;3.50;;;30.80;70.80;;;;;;5051595;28;20467;-54
2021/06/21 12:33:33;;;;;;;6.53;3.40;;;30.80;70.40;;;;;;5051577;28;20431;-53
2021/06/21 12:36:19;;;;;;;6.87;4.40;;;30.80;70.00;;;;;;5083194;28;20441;-54
2021/06/21 12:38:56;;;;;;;9.73;4.00;;;30.80;69.60;;;;;;5072472;28;20560;-54
2021/06/21 12:42:12;;;;;;;7.33;3.77;;;30.80;69.20;;;;;;5091093;28;20957;-55
2021/06/21 12:44:40;;;;;;;7.50;3.50;;;30.80;68.60;;;;;;5073334;28;20451;-54
2021/06/21 12:47:18;;;;;;;10.13;3.67;;;30.90;68.80;;;;;;5073081;28;20534;-55
2021/06/21 12:49:46;;;;;;;6.30;3.43;;;30.90;68.60;;;;;;5091388;28;20524;-55
2021/06/21 12:52:15;;;;;;;7.87;3.33;;;30.90;68.30;;;;;;5080781;28;20481;-55
2021/06/21 12:54:42;;;;;;;5.80;3.23;;;30.90;68.30;;;;;;5051438;28;20534;-54